^^
Station Historical Data
Daily Summary for November 12, 2017 Units:  Both    English   Metric
« Previous Day
Next Day »
Daily Weekly Monthly Yearly Custom
  High: Low: Average:
Temperature: 45.2 °F /  7.3 °C 26.0 °F /  -3.3 °C 35 °F /  1.7 °C
Dew Point: 28.8 °F /  -1.8 °C 14.5 °F /  -9.7 °C 22.3 °F /  -5.4 °C
Humidity: 75% 41% 60%
Wind Speed: 5.0mph /  8km/h - 0.4mph /  0.6km/h
Wind Gust: 10.0mph /  16.1km/h - -
Wind- - SW
Pressure: 30.54 in /  1034.1 hPa 30.42 in /  1030 hPa -
Precipitation: 0.00 in /  0 mm    
Historical Graphs
 
 
Tabular Data for November 12, 2017
Time Temperature Dew Point Pressure Wind Wind Speed Wind Gust Humidity Rainfall Rate (Hourly) Conditions
00:10 26.0 °F /  -3.3 °C 15.1 °F /  -9.4 °C 30.54in /  1034.1hPa Calm     63% 0.00in /  0mm CLR
00:20 26.4 °F /  -3.1 °C 14.8 °F /  -9.6 °C 30.53in /  1033.7hPa Calm     61% 0.00in /  0mm CLR
00:30 26.5 °F /  -3.1 °C 14.5 °F /  -9.7 °C 30.54in /  1034.1hPa Calm     60% 0.00in /  0mm CLR
00:40 26.2 °F /  -3.2 °C 15.3 °F /  -9.3 °C 30.53in /  1033.7hPa Calm     63% 0.00in /  0mm CLR
00:49 26.7 °F /  -2.9 °C 15.0 °F /  -9.4 °C 30.52in /  1033.4hPa Calm   1.0mph /  1.6km/h 61% 0.00in /  0mm CLR
00:59 27.1 °F /  -2.7 °C 14.7 °F /  -9.6 °C 30.51in /  1033.1hPa Calm   1.0mph /  1.6km/h 59% 0.00in /  0mm CLR
01:09 27.1 °F /  -2.7 °C 14.7 °F /  -9.6 °C 30.51in /  1033.1hPa Calm   1.0mph /  1.6km/h 59% 0.00in /  0mm CLR
01:19 27.1 °F /  -2.7 °C 14.7 °F /  -9.6 °C 30.52in /  1033.4hPa Calm   1.0mph /  1.6km/h 59% 0.00in /  0mm CLR
01:30 26.5 °F /  -3.1 °C 15.2 °F /  -9.3 °C 30.53in /  1033.7hPa Calm   1.0mph /  1.6km/h 62% 0.00in /  0mm CLR
01:39 26.8 °F /  -2.9 °C 14.8 °F /  -9.6 °C 30.53in /  1033.7hPa Calm     60% 0.00in /  0mm CLR
01:49 27.0 °F /  -2.8 °C 15.3 °F /  -9.3 °C 30.53in /  1033.7hPa Calm   1.0mph /  1.6km/h 61% 0.00in /  0mm CLR
01:59 27.0 °F /  -2.8 °C 15.3 °F /  -9.3 °C 30.53in /  1033.7hPa Calm     61% 0.00in /  0mm CLR
02:09 26.9 °F /  -2.8 °C 15.2 °F /  -9.3 °C 30.52in /  1033.4hPa Calm     61% 0.00in /  0mm CLR
02:19 26.8 °F /  -2.9 °C 15.2 °F /  -9.3 °C 30.52in /  1033.4hPa Calm     61% 0.00in /  0mm CLR
02:29 27.8 °F /  -2.3 °C 16.5 °F /  -8.6 °C 30.52in /  1033.4hPa Calm     62% 0.00in /  0mm CLR
02:39 27.8 °F /  -2.3 °C 15.3 °F /  -9.3 °C 30.52in /  1033.4hPa Calm   1.0mph /  1.6km/h 59% 0.00in /  0mm CLR
02:50 27.6 °F /  -2.4 °C 15.5 °F /  -9.2 °C 30.53in /  1033.7hPa Calm   1.0mph /  1.6km/h 60% 0.00in /  0mm CLR
02:59 27.5 °F /  -2.5 °C 15.5 °F /  -9.2 °C 30.52in /  1033.4hPa Calm   1.0mph /  1.6km/h 60% 0.00in /  0mm CLR
03:09 27.4 °F /  -2.6 °C 15.7 °F /  -9.1 °C 30.53in /  1033.7hPa Calm     61% 0.00in /  0mm CLR
03:19 26.9 °F /  -2.8 °C 15.6 °F /  -9.1 °C 30.52in /  1033.4hPa Calm     62% 0.00in /  0mm CLR
03:29 26.7 °F /  -2.9 °C 16.5 °F /  -8.6 °C 30.52in /  1033.4hPa Calm     65% 0.00in /  0mm CLR
03:39 26.7 °F /  -2.9 °C 16.8 °F /  -8.4 °C 30.52in /  1033.4hPa Calm     66% 0.00in /  0mm CLR
03:49 26.2 °F /  -3.2 °C 17.0 °F /  -8.3 °C 30.52in /  1033.4hPa Calm     68% 0.00in /  0mm CLR
04:09 26.4 °F /  -3.1 °C 17.6 °F /  -8 °C 30.52in /  1033.4hPa Calm     69% 0.00in /  0mm CLR
04:19 26.7 °F /  -2.9 °C 17.9 °F /  -7.8 °C 30.52in /  1033.4hPa Calm     69% 0.00in /  0mm CLR
04:30 27.0 °F /  -2.8 °C 17.8 °F /  -7.9 °C 30.52in /  1033.4hPa Calm     68% 0.00in /  0mm CLR
04:39 27.2 °F /  -2.7 °C 18.4 °F /  -7.6 °C 30.53in /  1033.7hPa Calm   1.0mph /  1.6km/h 69% 0.00in /  0mm CLR
04:49 27.3 °F /  -2.6 °C 19.1 °F /  -7.2 °C 30.52in /  1033.4hPa Calm     71% 0.00in /  0mm CLR
04:59 27.7 °F /  -2.4 °C 18.2 °F /  -7.7 °C 30.53in /  1033.7hPa Calm   1.0mph /  1.6km/h 67% 0.00in /  0mm CLR
05:09 27.8 °F /  -2.3 °C 17.6 °F /  -8 °C 30.53in /  1033.7hPa Calm   1.0mph /  1.6km/h 65% 0.00in /  0mm CLR
05:19 27.7 °F /  -2.4 °C 17.8 °F /  -7.9 °C 30.53in /  1033.7hPa Calm     66% 0.00in /  0mm CLR
05:30 27.7 °F /  -2.4 °C 18.2 °F /  -7.7 °C 30.52in /  1033.4hPa Calm     67% 0.00in /  0mm CLR
05:40 28.0 °F /  -2.2 °C 18.1 °F /  -7.7 °C 30.52in /  1033.4hPa Calm     66% 0.00in /  0mm CLR
05:49 27.8 °F /  -2.3 °C 17.9 °F /  -7.8 °C 30.52in /  1033.4hPa Calm     66% 0.00in /  0mm CLR
05:59 27.5 °F /  -2.5 °C 18.0 °F /  -7.8 °C 30.52in /  1033.4hPa Calm     67% 0.00in /  0mm CLR
06:09 27.9 °F /  -2.3 °C 18.4 °F /  -7.6 °C 30.52in /  1033.4hPa Calm   1.0mph /  1.6km/h 67% 0.00in /  0mm CLR
06:19 28.4 °F /  -2 °C 19.2 °F /  -7.1 °C 30.52in /  1033.4hPa Calm     68% 0.00in /  0mm CLR
06:30 28.2 °F /  -2.1 °C 18.3 °F /  -7.6 °C 30.52in /  1033.4hPa Calm     66% 0.00in /  0mm CLR
06:40 28.5 °F /  -1.9 °C 17.9 °F /  -7.8 °C 30.52in /  1033.4hPa Calm   1.0mph /  1.6km/h 64% 0.00in /  0mm CLR
06:50 28.3 °F /  -2.1 °C 17.7 °F /  -7.9 °C 30.52in /  1033.4hPa Calm     64% 0.00in /  0mm CLR
06:59 28.1 °F /  -2.2 °C 18.2 °F /  -7.7 °C 30.52in /  1033.4hPa Calm     66% 0.00in /  0mm CLR
07:09 28.1 °F /  -2.2 °C 19.3 °F /  -7.1 °C 30.53in /  1033.7hPa Calm     69% 0.00in /  0mm CLR
07:20 28.5 °F /  -1.9 °C 19.3 °F /  -7.1 °C 30.52in /  1033.4hPa Calm     68% 0.00in /  0mm CLR
07:30 29.0 °F /  -1.7 °C 20.1 °F /  -6.6 °C 30.52in /  1033.4hPa Calm     69% 0.00in /  0mm CLR
07:39 29.4 °F /  -1.4 °C 20.8 °F /  -6.2 °C 30.52in /  1033.4hPa Calm     70% 0.00in /  0mm CLR
07:49 30.1 °F /  -1.1 °C 21.1 °F /  -6.1 °C 30.52in /  1033.4hPa Calm     69% 0.00in /  0mm CLR
07:59 30.7 °F /  -0.7 °C 20.0 °F /  -6.7 °C 30.52in /  1033.4hPa Calm   1.0mph /  1.6km/h 64% 0.00in /  0mm CLR
08:10 31.0 °F /  -0.6 °C 20.2 °F /  -6.6 °C 30.52in /  1033.4hPa Calm   1.0mph /  1.6km/h 64% 0.00in /  0mm CLR
08:29 32.0 °F /  0 °C 20.8 °F /  -6.2 °C 30.52in /  1033.4hPa Calm     63% 0.00in /  0mm CLR
08:39 32.5 °F /  0.3 °C 20.9 °F /  -6.2 °C 30.52in /  1033.4hPa Calm     62% 0.00in /  0mm CLR
08:49 32.9 °F /  0.5 °C 22.4 °F /  -5.3 °C 30.53in /  1033.7hPa Calm   1.0mph /  1.6km/h 65% 0.00in /  0mm CLR
08:59 33.2 °F /  0.7 °C 21.9 °F /  -5.6 °C 30.52in /  1033.4hPa Calm   1.0mph /  1.6km/h 63% 0.00in /  0mm CLR
09:09 33.8 °F /  1 °C 22.9 °F /  -5.1 °C 30.52in /  1033.4hPa Calm     64% 0.00in /  0mm CLR
09:19 34.6 °F /  1.4 °C 23.7 °F /  -4.6 °C 30.51in /  1033.1hPa Calm     64% 0.00in /  0mm CLR
09:29 34.9 °F /  1.6 °C 23.9 °F /  -4.5 °C 30.52in /  1033.4hPa Calm   2.0mph /  3.2km/h 64% 0.00in /  0mm CLR
09:39 35.1 °F /  1.7 °C 24.1 °F /  -4.4 °C 30.51in /  1033.1hPa NW 1.0mph /  1.6km/h 3.0mph /  4.8km/h 64% 0.00in /  0mm CLR
09:50 35.3 °F /  1.8 °C 24.0 °F /  -4.4 °C 30.51in /  1033.1hPa Calm   2.0mph /  3.2km/h 63% 0.00in /  0mm CLR
10:00 35.9 °F /  2.2 °C 24.1 °F /  -4.4 °C 30.51in /  1033.1hPa Calm   2.0mph /  3.2km/h 62% 0.00in /  0mm CLR
10:10 36.7 °F /  2.6 °C 23.7 °F /  -4.6 °C 30.51in /  1033.1hPa Calm   2.0mph /  3.2km/h 59% 0.00in /  0mm CLR
10:20 36.8 °F /  2.7 °C 21.3 °F /  -5.9 °C 30.51in /  1033.1hPa Calm   3.0mph /  4.8km/h 53% 0.00in /  0mm CLR
10:30 37.3 °F /  2.9 °C 21.3 °F /  -5.9 °C 30.51in /  1033.1hPa Calm   2.0mph /  3.2km/h 52% 0.00in /  0mm CLR
10:40 37.4 °F /  3 °C 20.4 °F /  -6.4 °C 30.51in /  1033.1hPa Calm   5.0mph /  8km/h 50% 0.00in /  0mm CLR
10:50 37.7 °F /  3.2 °C 21.7 °F /  -5.7 °C 30.51in /  1033.1hPa SSW 1.0mph /  1.6km/h 4.0mph /  6.4km/h 52% 0.00in /  0mm CLR
11:00 38.2 °F /  3.4 °C 20.7 °F /  -6.3 °C 30.50in /  1032.7hPa SSW 1.0mph /  1.6km/h 5.0mph /  8km/h 49% 0.00in /  0mm CLR
11:10 38.6 °F /  3.7 °C 21.1 °F /  -6.1 °C 30.50in /  1032.7hPa SW 2.0mph /  3.2km/h 4.0mph /  6.4km/h 49% 0.00in /  0mm FEW
11:20 39.0 °F /  3.9 °C 21.0 °F /  -6.1 °C 30.50in /  1032.7hPa SW 1.0mph /  1.6km/h 7.0mph /  11.3km/h 48% 0.00in /  0mm FEW
11:30 38.8 °F /  3.8 °C 20.8 °F /  -6.2 °C 30.49in /  1032.4hPa Calm   2.0mph /  3.2km/h 48% 0.00in /  0mm FEW
11:40 39.2 °F /  4 °C 20.6 °F /  -6.3 °C 30.49in /  1032.4hPa Calm   4.0mph /  6.4km/h 47% 0.00in /  0mm FEW
11:50 39.8 °F /  4.3 °C 20.2 °F /  -6.6 °C 30.48in /  1032.1hPa Calm   5.0mph /  8km/h 45% 0.00in /  0mm FEW
12:00 41.0 °F /  5 °C 19.1 °F /  -7.2 °C 30.47in /  1031.7hPa SSE 1.0mph /  1.6km/h 7.0mph /  11.3km/h 41% 0.00in /  0mm FEW
12:10 41.3 °F /  5.2 °C 20.4 °F /  -6.4 °C 30.47in /  1031.7hPa SW 2.0mph /  3.2km/h 6.0mph /  9.7km/h 43% 0.00in /  0mm FEW
12:20 41.6 °F /  5.3 °C 22.3 °F /  -5.4 °C 30.47in /  1031.7hPa SW 3.0mph /  4.8km/h 7.0mph /  11.3km/h 46% 0.00in /  0mm FEW
12:30 41.6 °F /  5.3 °C 22.4 °F /  -5.3 °C 30.47in /  1031.7hPa SW 1.0mph /  1.6km/h 6.0mph /  9.7km/h 46% 0.00in /  0mm FEW
12:40 42.0 °F /  5.6 °C 23.2 °F /  -4.9 °C 30.46in /  1031.4hPa SW 1.0mph /  1.6km/h 8.0mph /  12.9km/h 47% 0.00in /  0mm FEW
12:50 42.7 °F /  5.9 °C 23.9 °F /  -4.5 °C 30.46in /  1031.4hPa South 3.0mph /  4.8km/h 10.0mph /  16.1km/h 47% 0.00in /  0mm FEW
13:00 43.0 °F /  6.1 °C 24.1 °F /  -4.4 °C 30.45in /  1031hPa SW 3.0mph /  4.8km/h 7.0mph /  11.3km/h 47% 0.00in /  0mm FEW
13:10 42.9 °F /  6.1 °C 25.5 °F /  -3.6 °C 30.45in /  1031hPa SW 3.0mph /  4.8km/h 8.0mph /  12.9km/h 50% 0.00in /  0mm FEW
13:20 43.0 °F /  6.1 °C 26.1 °F /  -3.3 °C 30.45in /  1031hPa SSW 5.0mph /  8km/h 10.0mph /  16.1km/h 51% 0.00in /  0mm FEW
13:30 43.2 °F /  6.2 °C 26.7 °F /  -2.9 °C 30.44in /  1030.7hPa SW 1.0mph /  1.6km/h 8.0mph /  12.9km/h 52% 0.00in /  0mm FEW
13:40 43.7 °F /  6.5 °C 27.2 °F /  -2.7 °C 30.44in /  1030.7hPa SW 1.0mph /  1.6km/h 7.0mph /  11.3km/h 52% 0.00in /  0mm FEW
13:50 43.9 °F /  6.6 °C 26.4 °F /  -3.1 °C 30.44in /  1030.7hPa SW 1.0mph /  1.6km/h 6.0mph /  9.7km/h 50% 0.00in /  0mm FEW
14:00 43.9 °F /  6.6 °C 26.4 °F /  -3.1 °C 30.44in /  1030.7hPa SW 1.0mph /  1.6km/h 7.0mph /  11.3km/h 50% 0.00in /  0mm FEW
14:10 44.1 °F /  6.7 °C 25.6 °F /  -3.6 °C 30.43in /  1030.4hPa SW 3.0mph /  4.8km/h 6.0mph /  9.7km/h 48% 0.00in /  0mm FEW
14:20 44.1 °F /  6.7 °C 25.1 °F /  -3.8 °C 30.43in /  1030.4hPa South 2.0mph /  3.2km/h 6.0mph /  9.7km/h 47% 0.00in /  0mm FEW
14:30 44.4 °F /  6.9 °C 25.9 °F /  -3.4 °C 30.43in /  1030.4hPa SSW 3.0mph /  4.8km/h 8.0mph /  12.9km/h 48% 0.00in /  0mm FEW
14:40 44.4 °F /  6.9 °C 25.9 °F /  -3.4 °C 30.43in /  1030.4hPa SSW 2.0mph /  3.2km/h 8.0mph /  12.9km/h 48% 0.00in /  0mm FEW
14:50 44.6 °F /  7 °C 26.1 °F /  -3.3 °C 30.43in /  1030.4hPa WSW 5.0mph /  8km/h 7.0mph /  11.3km/h 48% 0.00in /  0mm FEW
15:00 44.8 °F /  7.1 °C 25.7 °F /  -3.5 °C 30.43in /  1030.4hPa SW 1.0mph /  1.6km/h 7.0mph /  11.3km/h 47% 0.00in /  0mm FEW
15:10 44.8 °F /  7.1 °C 24.7 °F /  -4.1 °C 30.43in /  1030.4hPa SW 3.0mph /  4.8km/h 8.0mph /  12.9km/h 45% 0.00in /  0mm CLR
15:20 44.7 °F /  7.1 °C 24.1 °F /  -4.4 °C 30.43in /  1030.4hPa SW 1.0mph /  1.6km/h 6.0mph /  9.7km/h 44% 0.00in /  0mm CLR
15:30 44.9 °F /  7.2 °C 24.8 °F /  -4 °C 30.43in /  1030.4hPa SSW 2.0mph /  3.2km/h 5.0mph /  8km/h 45% 0.00in /  0mm CLR
15:40 45.2 °F /  7.3 °C 25.6 °F /  -3.6 °C 30.43in /  1030.4hPa SW 1.0mph /  1.6km/h 3.0mph /  4.8km/h 46% 0.00in /  0mm CLR
15:50 44.9 °F /  7.2 °C 24.8 °F /  -4 °C 30.43in /  1030.4hPa SSW 2.0mph /  3.2km/h 6.0mph /  9.7km/h 45% 0.00in /  0mm CLR
16:00 44.6 °F /  7 °C 25.1 °F /  -3.8 °C 30.42in /  1030hPa Calm   5.0mph /  8km/h 46% 0.00in /  0mm CLR
16:10 44.6 °F /  7 °C 25.1 °F /  -3.8 °C 30.43in /  1030.4hPa Calm   3.0mph /  4.8km/h 46% 0.00in /  0mm CLR
16:20 43.8 °F /  6.6 °C 24.9 °F /  -3.9 °C 30.43in /  1030.4hPa Calm   5.0mph /  8km/h 47% 0.00in /  0mm CLR
16:30 42.9 °F /  6.1 °C 25.5 °F /  -3.6 °C 30.43in /  1030.4hPa Calm   1.0mph /  1.6km/h 50% 0.00in /  0mm CLR
16:40 41.9 °F /  5.5 °C 25.1 °F /  -3.8 °C 30.43in /  1030.4hPa Calm     51% 0.00in /  0mm CLR
16:50 40.8 °F /  4.9 °C 25.8 °F /  -3.4 °C 30.43in /  1030.4hPa Calm     55% 0.00in /  0mm CLR
17:00 39.6 °F /  4.2 °C 26.0 °F /  -3.3 °C 30.43in /  1030.4hPa Calm     58% 0.00in /  0mm CLR
17:10 38.8 °F /  3.8 °C 26.1 °F /  -3.3 °C 30.43in /  1030.4hPa Calm     60% 0.00in /  0mm CLR
17:20 37.9 °F /  3.3 °C 26.0 °F /  -3.3 °C 30.43in /  1030.4hPa Calm     62% 0.00in /  0mm CLR
17:30 38.8 °F /  3.8 °C 25.7 °F /  -3.5 °C 30.43in /  1030.4hPa Calm     59% 0.00in /  0mm CLR
17:40 38.5 °F /  3.6 °C 25.4 °F /  -3.7 °C 30.42in /  1030hPa Calm     59% 0.00in /  0mm CLR
17:50 38.1 °F /  3.4 °C 25.8 °F /  -3.4 °C 30.42in /  1030hPa Calm     61% 0.00in /  0mm CLR
18:00 38.4 °F /  3.6 °C 25.3 °F /  -3.7 °C 30.43in /  1030.4hPa Calm     59% 0.00in /  0mm CLR
18:10 38.7 °F /  3.7 °C 26.0 °F /  -3.3 °C 30.43in /  1030.4hPa Calm     60% 0.00in /  0mm CLR
18:20 37.9 °F /  3.3 °C 26.8 °F /  -2.9 °C 30.43in /  1030.4hPa Calm     64% 0.00in /  0mm CLR
18:30 37.3 °F /  2.9 °C 27.0 °F /  -2.8 °C 30.43in /  1030.4hPa Calm     66% 0.00in /  0mm CLR
18:40 38.1 °F /  3.4 °C 25.5 °F /  -3.6 °C 30.43in /  1030.4hPa Calm     60% 0.00in /  0mm CLR
18:50 38.6 °F /  3.7 °C 25.5 °F /  -3.6 °C 30.43in /  1030.4hPa Calm     59% 0.00in /  0mm CLR
19:10 38.9 °F /  3.8 °C 25.4 °F /  -3.7 °C 30.43in /  1030.4hPa Calm     58% 0.00in /  0mm CLR
19:20 38.5 °F /  3.6 °C 25.0 °F /  -3.9 °C 30.43in /  1030.4hPa Calm   1.0mph /  1.6km/h 58% 0.00in /  0mm CLR
19:40 37.5 °F /  3.1 °C 26.1 °F /  -3.3 °C 30.43in /  1030.4hPa Calm     63% 0.00in /  0mm CLR
19:50 38.0 °F /  3.3 °C 26.1 °F /  -3.3 °C 30.43in /  1030.4hPa Calm     62% 0.00in /  0mm CLR
20:00 37.5 °F /  3.1 °C 25.7 °F /  -3.5 °C 30.43in /  1030.4hPa Calm     62% 0.00in /  0mm CLR
20:10 37.6 °F /  3.1 °C 27.6 °F /  -2.4 °C 30.43in /  1030.4hPa Calm     67% 0.00in /  0mm CLR
20:20 37.4 °F /  3 °C 26.7 °F /  -2.9 °C 30.42in /  1030hPa Calm     65% 0.00in /  0mm CLR
20:30 36.1 °F /  2.3 °C 26.5 °F /  -3.1 °C 30.43in /  1030.4hPa Calm     68% 0.00in /  0mm CLR
20:40 35.7 °F /  2.1 °C 27.2 °F /  -2.7 °C 30.43in /  1030.4hPa Calm     71% 0.00in /  0mm CLR
20:50 35.3 °F /  1.8 °C 27.1 °F /  -2.7 °C 30.43in /  1030.4hPa Calm     72% 0.00in /  0mm CLR
21:00 35.7 °F /  2.1 °C 28.5 °F /  -1.9 °C 30.43in /  1030.4hPa Calm     75% 0.00in /  0mm CLR
21:10 36.4 °F /  2.4 °C 28.5 °F /  -1.9 °C 30.43in /  1030.4hPa Calm     73% 0.00in /  0mm CLR
21:20 36.1 °F /  2.3 °C 28.6 °F /  -1.9 °C 30.44in /  1030.7hPa Calm     74% 0.00in /  0mm CLR
21:30 36.3 °F /  2.4 °C 28.8 °F /  -1.8 °C 30.44in /  1030.7hPa Calm     74% 0.00in /  0mm CLR
21:40 36.3 °F /  2.4 °C 28.4 °F /  -2 °C 30.44in /  1030.7hPa Calm     73% 0.00in /  0mm CLR
21:50 35.4 °F /  1.9 °C 28.0 °F /  -2.2 °C 30.44in /  1030.7hPa Calm     74% 0.00in /  0mm CLR
22:00 34.7 °F /  1.5 °C 27.6 °F /  -2.4 °C 30.44in /  1030.7hPa Calm     75% 0.00in /  0mm CLR
22:10 34.9 °F /  1.6 °C 27.8 °F /  -2.3 °C 30.43in /  1030.4hPa Calm     75% 0.00in /  0mm CLR
22:20 35.2 °F /  1.8 °C 27.4 °F /  -2.6 °C 30.43in /  1030.4hPa Calm     73% 0.00in /  0mm CLR
22:30 36.0 °F /  2.2 °C 27.2 °F /  -2.7 °C 30.43in /  1030.4hPa Calm     70% 0.00in /  0mm CLR
22:40 36.5 °F /  2.5 °C 27.3 °F /  -2.6 °C 30.43in /  1030.4hPa Calm     69% 0.00in /  0mm CLR
22:50 36.7 °F /  2.6 °C 27.1 °F /  -2.7 °C 30.43in /  1030.4hPa Calm     68% 0.00in /  0mm CLR
23:00 36.6 °F /  2.6 °C 27.7 °F /  -2.4 °C 30.43in /  1030.4hPa Calm     70% 0.00in /  0mm CLR
23:10 36.9 °F /  2.7 °C 27.3 °F /  -2.6 °C 30.42in /  1030hPa Calm     68% 0.00in /  0mm CLR
23:20 36.7 °F /  2.6 °C 27.1 °F /  -2.7 °C 30.42in /  1030hPa ESE 1.0mph /  1.6km/h 1.0mph /  1.6km/h 68% 0.00in /  0mm CLR
23:30 36.9 °F /  2.7 °C 27.0 °F /  -2.8 °C 30.42in /  1030hPa Calm   1.0mph /  1.6km/h 67% 0.00in /  0mm CLR
23:40 36.7 °F /  2.6 °C 27.1 °F /  -2.7 °C 30.42in /  1030hPa Calm   1.0mph /  1.6km/h 68% 0.00in /  0mm CLR
23:50 36.7 °F /  2.6 °C 27.1 °F /  -2.7 °C 30.42in /  1030hPa Calm   1.0mph /  1.6km/h 68% 0.00in /  0mm CLR
TarryTown NY Weather
Compliments of Weather Underground - 1.75 mb